Time;durP1;ratioP1;P1;durP2;ratioP2;P2;SDS_P1;SDS_P2;PMS_P1;PMS_P2;Temp;Humidity;BMP_temperature;BMP_pressure;BME280_temperature;BME280_humidity;BME280_pressure;Samples;Min_cycle;Max_cycle;Signal;HPM_P1;HPM_P2
2022/12/12 00:01:18;;;;;;;84.93;23.35;;;-0.50;99.90;;;;;;5061556;28;20041;-61
2022/12/12 00:03:46;;;;;;;123.38;27.60;;;-0.40;99.90;;;;;;5058293;28;20053;-60
2022/12/12 00:06:15;;;;;;;117.20;25.52;;;-0.40;99.90;;;;;;5065729;28;20056;-60
2022/12/12 00:08:42;;;;;;;118.95;28.25;;;-0.40;99.90;;;;;;5062240;28;20056;-60
2022/12/12 00:11:11;;;;;;;106.32;25.02;;;-0.30;99.90;;;;;;5058066;28;20623;-60
2022/12/12 00:13:39;;;;;;;88.72;25.75;;;-0.30;99.90;;;;;;5057854;28;20041;-60
2022/12/12 00:16:07;;;;;;;105.35;26.52;;;-0.30;99.90;;;;;;5050336;28;20498;-59
2022/12/12 00:18:36;;;;;;;95.05;24.52;;;-0.20;99.90;;;;;;5052316;28;20040;-60
2022/12/12 00:21:10;;;;;;;104.80;26.02;;;-0.20;99.90;;;;;;5050720;28;20626;-60
2022/12/12 00:23:38;;;;;;;91.45;23.45;;;-0.30;99.90;;;;;;5063513;28;20052;-60
2022/12/12 00:26:13;;;;;;;112.20;25.48;;;-0.20;99.90;;;;;;5067700;28;20053;-60
2022/12/12 00:28:41;;;;;;;196.57;29.73;;;-0.20;99.90;;;;;;5065638;28;20052;-61
2022/12/12 00:31:09;;;;;;;144.55;26.50;;;-0.20;99.90;;;;;;5068476;28;20045;-61
2022/12/12 00:33:36;;;;;;;155.27;27.55;;;-0.20;99.90;;;;;;5060079;28;20491;-60
2022/12/12 00:36:05;;;;;;;121.50;26.15;;;-0.10;99.90;;;;;;5053872;28;20660;-61
2022/12/12 00:38:33;;;;;;;115.70;23.27;;;-0.10;99.90;;;;;;5058582;28;20047;-60
2022/12/12 00:41:01;;;;;;;162.70;25.25;;;-0.10;99.90;;;;;;5051761;28;20048;-59
2022/12/12 00:43:29;;;;;;;147.30;26.30;;;-0.10;99.90;;;;;;5058192;28;20052;-60
2022/12/12 00:45:58;;;;;;;237.05;26.63;;;-0.10;99.90;;;;;;5057817;28;20045;-61
2022/12/12 00:48:27;;;;;;;216.63;25.55;;;-0.10;99.90;;;;;;5063212;28;20213;-60
2022/12/12 00:50:56;;;;;;;200.38;26.50;;;-0.10;99.90;;;;;;5065235;28;20041;-59
2022/12/12 00:53:23;;;;;;;146.38;24.88;;;-0.10;99.90;;;;;;5059932;28;20067;-61
2022/12/12 00:55:57;;;;;;;166.65;25.60;;;0.00;99.90;;;;;;5068257;28;20435;-60
2022/12/12 00:58:26;;;;;;;159.32;23.90;;;-0.10;99.90;;;;;;5069967;28;20428;-60
2022/12/12 01:00:53;;;;;;;222.88;25.33;;;-0.10;99.90;;;;;;5068177;28;20055;-59
2022/12/12 01:03:21;;;;;;;202.57;25.08;;;-0.10;99.90;;;;;;5057355;28;20056;-61
2022/12/12 01:05:49;;;;;;;166.75;24.15;;;-0.10;99.90;;;;;;5066912;28;20079;-61
2022/12/12 01:08:17;;;;;;;232.50;26.23;;;0.00;99.90;;;;;;5069466;28;20071;-61
2022/12/12 01:10:44;;;;;;;194.80;25.05;;;-0.10;99.90;;;;;;5066382;28;20506;-60
2022/12/12 01:13:12;;;;;;;142.73;23.33;;;0.00;99.90;;;;;;5051636;28;20053;-60
2022/12/12 01:15:40;;;;;;;176.50;25.77;;;-0.10;99.90;;;;;;5066412;28;20498;-60
2022/12/12 01:18:07;;;;;;;137.38;25.58;;;-0.10;99.90;;;;;;5062536;28;20040;-60
2022/12/12 01:20:35;;;;;;;174.95;25.75;;;-0.10;99.90;;;;;;5069184;28;20369;-60
2022/12/12 01:23:03;;;;;;;123.65;22.40;;;-0.10;99.90;;;;;;5069655;28;20045;-61
2022/12/12 01:25:30;;;;;;;86.10;22.58;;;-0.10;99.90;;;;;;5069963;28;20049;-60
2022/12/12 01:27:58;;;;;;;142.02;22.98;;;-0.10;99.90;;;;;;5052058;28;20048;-61
2022/12/12 01:30:27;;;;;;;148.23;23.98;;;-0.10;99.90;;;;;;5057738;28;20762;-62
2022/12/12 01:32:54;;;;;;;105.40;21.48;;;-0.10;99.90;;;;;;5060947;28;20048;-61
2022/12/12 01:35:23;;;;;;;127.68;24.25;;;-0.10;99.90;;;;;;5064376;28;20040;-59
2022/12/12 01:37:51;;;;;;;153.38;23.27;;;-0.10;99.90;;;;;;5054289;28;20040;-61
2022/12/12 01:40:26;;;;;;;96.68;23.38;;;-0.20;99.90;;;;;;5065095;28;20052;-59
2022/12/12 01:42:54;;;;;;;135.18;22.25;;;-0.10;99.90;;;;;;5052271;28;20048;-61
2022/12/12 01:45:58;;;;;;;109.13;22.15;;;-0.20;99.90;;;;;;5049722;28;20048;-59
2022/12/12 01:48:30;;;;;;;134.00;23.83;;;-0.30;99.90;;;;;;5061202;28;20057;-58
2022/12/12 01:51:02;;;;;;;105.53;24.15;;;-0.30;99.90;;;;;;5054492;28;20048;-60
2022/12/12 01:53:32;;;;;;;113.38;24.90;;;-0.30;99.90;;;;;;5063601;28;20057;-60
2022/12/12 01:56:03;;;;;;;144.10;24.33;;;-0.30;99.90;;;;;;5069530;28;20532;-60
2022/12/12 01:58:32;;;;;;;144.32;25.15;;;-0.40;99.90;;;;;;5065985;28;20078;-59
2022/12/12 02:01:01;;;;;;;132.10;22.00;;;-0.30;99.90;;;;;;5064387;28;20055;-61
2022/12/12 02:03:29;;;;;;;134.30;26.45;;;-0.30;99.90;;;;;;5060552;28;20067;-59
2022/12/12 02:06:01;;;;;;;137.60;26.55;;;-0.40;99.90;;;;;;5059020;28;20045;-60
2022/12/12 02:08:29;;;;;;;215.10;26.88;;;-0.30;99.90;;;;;;5065336;28;20046;-59
2022/12/12 02:10:58;;;;;;;269.40;29.40;;;-0.30;99.90;;;;;;5048337;28;20049;-60
2022/12/12 02:13:29;;;;;;;144.50;22.95;;;-0.40;99.90;;;;;;5045761;28;20052;-62
2022/12/12 02:16:24;;;;;;;280.48;28.98;;;-0.30;99.90;;;;;;5045852;28;20064;-62
2022/12/12 02:19:10;;;;;;;163.07;24.58;;;-0.40;99.90;;;;;;5056025;28;20407;-59
2022/12/12 02:22:05;;;;;;;151.73;24.38;;;-0.40;99.90;;;;;;5045737;28;20599;-61
2022/12/12 02:25:04;;;;;;;177.52;24.95;;;-0.40;99.90;;;;;;5046733;28;20064;-60
2022/12/12 02:28:02;;;;;;;182.65;23.10;;;-0.40;99.90;;;;;;5048378;28;20524;-59
2022/12/12 02:30:44;;;;;;;133.63;21.70;;;-0.40;99.90;;;;;;5059721;28;20044;-61
2022/12/12 02:33:41;;;;;;;258.60;23.80;;;-0.50;99.90;;;;;;5052750;28;20049;-60
2022/12/12 02:36:35;;;;;;;236.25;26.02;;;-0.50;99.90;;;;;;5060034;28;20052;-60
2022/12/12 02:39:34;;;;;;;180.98;22.25;;;-0.60;99.90;;;;;;5042296;28;20069;-60
2022/12/12 02:42:13;;;;;;;194.68;23.08;;;-0.50;99.90;;;;;;5049840;28;20041;-59
2022/12/12 02:44:55;;;;;;;138.25;21.67;;;-0.60;99.90;;;;;;5058499;28;20048;-61
2022/12/12 02:47:34;;;;;;;168.43;22.90;;;-0.70;99.90;;;;;;5056033;28;20389;-60
2022/12/12 02:50:17;;;;;;;110.82;19.33;;;-0.70;99.90;;;;;;5049777;28;20404;-59
2022/12/12 02:52:46;;;;;;;116.68;19.10;;;-0.70;99.90;;;;;;5059042;28;20064;-58
2022/12/12 02:55:15;;;;;;;159.98;20.48;;;-0.80;99.90;;;;;;5058402;28;20045;-60
2022/12/12 02:57:43;;;;;;;106.00;19.25;;;-0.80;99.90;;;;;;5054016;28;20049;-59
2022/12/12 03:00:16;;;;;;;119.13;20.67;;;-0.80;99.90;;;;;;5068494;28;20047;-60
2022/12/12 03:08:53;;;;;;;103.50;18.73;;;-0.90;99.90;;;;;;5058814;28;20542;-59
2022/12/12 03:11:41;;;;;;;91.97;20.17;;;-0.90;99.90;;;;;;5048580;28;20037;-59
2022/12/12 03:14:14;;;;;;;99.80;17.73;;;-1.00;99.90;;;;;;5047600;28;20052;-58
2022/12/12 03:17:00;;;;;;;70.50;18.73;;;-1.00;99.90;;;;;;5056717;28;20056;-60
2022/12/12 03:19:55;;;;;;;61.10;18.42;;;-1.10;99.90;;;;;;5055905;28;20064;-60
2022/12/12 03:22:33;;;;;;;61.47;19.63;;;-1.00;99.90;;;;;;5060351;28;20051;-60
2022/12/12 03:25:07;;;;;;;49.47;17.15;;;-1.10;99.90;;;;;;5061056;28;20045;-58
2022/12/12 03:27:51;;;;;;;54.50;17.30;;;-1.10;99.90;;;;;;5047849;28;20408;-59
2022/12/12 03:30:19;;;;;;;59.13;18.85;;;-1.20;99.90;;;;;;5049932;28;20040;-60
2022/12/12 03:32:57;;;;;;;59.72;19.23;;;-1.20;99.90;;;;;;5062252;28;20499;-59
2022/12/12 03:35:34;;;;;;;53.28;18.27;;;-1.30;99.90;;;;;;5050859;28;20055;-59
2022/12/12 03:38:16;;;;;;;48.22;16.10;;;-1.40;99.90;;;;;;5050563;28;20606;-59
2022/12/12 03:40:51;;;;;;;52.60;17.38;;;-1.40;99.90;;;;;;5059793;28;20045;-57
2022/12/12 03:43:35;;;;;;;50.50;17.63;;;-1.50;99.90;;;;;;5046286;28;20049;-59
2022/12/12 03:46:23;;;;;;;49.85;17.33;;;-1.50;99.90;;;;;;5052725;28;20044;-59
2022/12/12 03:49:04;;;;;;;58.75;18.67;;;-1.50;99.90;;;;;;5058257;28;20045;-59
2022/12/12 03:51:38;;;;;;;60.47;19.23;;;-1.50;99.90;;;;;;5057422;28;20049;-59
2022/12/12 03:54:15;;;;;;;49.22;18.55;;;-1.50;99.90;;;;;;5063074;28;20117;-60
2022/12/12 03:57:06;;;;;;;47.55;16.30;;;-1.60;99.90;;;;;;5069042;28;20044;-59
2022/12/12 03:59:49;;;;;;;55.25;18.73;;;-1.60;99.90;;;;;;5065226;28;20045;-60
2022/12/12 04:02:32;;;;;;;50.97;16.35;;;-1.60;99.90;;;;;;5066459;28;20511;-59
2022/12/12 04:05:16;;;;;;;48.28;17.77;;;-1.60;99.90;;;;;;5060734;28;20052;-59
2022/12/12 04:07:51;;;;;;;54.97;18.90;;;-1.60;99.90;;;;;;5070715;28;20041;-59
2022/12/12 04:13:09;;;;;;;51.38;18.08;;;-1.70;99.90;;;;;;5061537;28;20037;-59
2022/12/12 04:15:36;;;;;;;58.38;19.20;;;-1.60;99.90;;;;;;5070628;28;20055;-60
2022/12/12 04:18:29;;;;;;;63.72;19.10;;;-1.60;99.90;;;;;;5072981;28;20057;-59
2022/12/12 04:24:29;;;;;;;60.17;18.48;;;-1.50;99.90;;;;;;5052595;28;20048;-58
2022/12/12 04:27:01;;;;;;;55.88;17.98;;;-1.50;99.90;;;;;;5053496;28;20534;-58
2022/12/12 04:29:54;;;;;;;45.13;18.20;;;-1.40;99.90;;;;;;5056925;28;20044;-59
2022/12/12 04:32:44;;;;;;;66.07;19.90;;;-1.30;99.90;;;;;;5070647;28;20049;-59
2022/12/12 04:35:29;;;;;;;55.78;17.52;;;-1.30;99.90;;;;;;5071375;28;20408;-58
2022/12/12 04:38:03;;;;;;;54.88;18.73;;;-1.30;99.90;;;;;;5068294;28;20046;-59
2022/12/12 04:40:43;;;;;;;60.03;19.40;;;-1.30;99.90;;;;;;5052613;28;20049;-58
2022/12/12 04:43:20;;;;;;;59.45;19.48;;;-1.20;99.90;;;;;;5054944;28;20033;-59
2022/12/12 04:45:55;;;;;;;54.28;20.33;;;-1.20;99.90;;;;;;5053830;28;20045;-59
2022/12/12 04:48:29;;;;;;;56.25;20.15;;;-1.20;99.90;;;;;;5058254;28;20047;-59
2022/12/12 04:51:05;;;;;;;52.72;17.10;;;-1.20;99.90;;;;;;5061847;28;20051;-60
2022/12/12 04:53:43;;;;;;;53.30;18.23;;;-1.10;99.90;;;;;;5071728;28;20052;-59
2022/12/12 04:56:16;;;;;;;48.25;17.30;;;-1.10;99.90;;;;;;5053602;28;20037;-61
2022/12/12 04:58:43;;;;;;;45.42;16.77;;;-1.20;99.90;;;;;;5062212;28;20067;-59
2022/12/12 05:01:36;;;;;;;55.22;17.88;;;-1.20;99.90;;;;;;5059185;28;20032;-60
2022/12/12 05:04:23;;;;;;;54.70;17.27;;;-1.10;99.90;;;;;;5071738;28;20392;-58
2022/12/12 05:07:05;;;;;;;48.00;18.63;;;-1.10;99.90;;;;;;5071020;28;20040;-59
2022/12/12 05:09:34;;;;;;;52.35;18.50;;;-1.10;99.90;;;;;;5073202;28;20056;-60
2022/12/12 05:12:02;;;;;;;47.58;16.30;;;-1.10;99.90;;;;;;5068248;28;20048;-59
2022/12/12 05:14:31;;;;;;;50.55;17.67;;;-1.10;99.90;;;;;;5071332;28;20054;-60
2022/12/12 05:17:05;;;;;;;55.42;18.02;;;-1.10;99.90;;;;;;5073760;28;20047;-60
2022/12/12 05:19:34;;;;;;;52.70;17.25;;;-1.00;99.90;;;;;;5073493;28;20071;-59
2022/12/12 05:22:02;;;;;;;58.70;17.95;;;-1.00;99.90;;;;;;5072507;28;20052;-59
2022/12/12 05:24:30;;;;;;;58.80;19.08;;;-1.00;99.90;;;;;;5072500;28;20041;-59
2022/12/12 05:26:59;;;;;;;55.28;17.70;;;-0.90;99.90;;;;;;5071113;28;20056;-59
2022/12/12 05:29:30;;;;;;;60.05;19.55;;;-0.80;99.90;;;;;;5063710;28;20059;-59
2022/12/12 05:32:01;;;;;;;59.90;20.55;;;-0.80;99.90;;;;;;5068053;28;20683;-59
2022/12/12 05:34:29;;;;;;;65.57;19.05;;;-0.80;99.90;;;;;;5070139;28;20538;-60
2022/12/12 05:36:57;;;;;;;58.08;18.92;;;-0.70;99.90;;;;;;5034133;28;20045;-59
2022/12/12 05:39:24;;;;;;;54.15;18.83;;;-0.70;99.90;;;;;;5065766;28;20040;-60
2022/12/12 05:41:55;;;;;;;59.67;19.73;;;-0.60;99.90;;;;;;5070284;28;20040;-60
2022/12/12 05:44:22;;;;;;;60.08;19.48;;;-0.60;99.90;;;;;;5058421;28;20075;-59
2022/12/12 05:46:50;;;;;;;64.13;19.02;;;-0.60;99.90;;;;;;5071034;28;20040;-59
2022/12/12 05:49:18;;;;;;;67.50;19.13;;;-0.50;99.90;;;;;;5050178;28;20037;-59
2022/12/12 05:51:45;;;;;;;61.58;18.73;;;-0.60;99.90;;;;;;5049098;28;20041;-59
2022/12/12 05:54:13;;;;;;;63.78;20.58;;;-0.50;99.90;;;;;;5050729;28;20055;-60
2022/12/12 05:56:41;;;;;;;60.00;19.75;;;-0.50;99.90;;;;;;5049068;28;20429;-59
2022/12/12 05:59:09;;;;;;;61.45;19.80;;;-0.40;99.90;;;;;;5064128;28;20037;-59
2022/12/12 06:01:37;;;;;;;72.57;22.45;;;-0.50;99.90;;;;;;5056399;28;20045;-60
2022/12/12 06:04:04;;;;;;;63.72;20.23;;;-0.40;99.90;;;;;;5044188;28;20067;-59
2022/12/12 06:06:32;;;;;;;69.22;20.48;;;-0.40;99.90;;;;;;5050098;28;20625;-59
2022/12/12 06:09:01;;;;;;;75.25;21.77;;;-0.40;99.90;;;;;;5064356;28;20040;-60
2022/12/12 06:11:29;;;;;;;70.47;21.40;;;-0.40;99.90;;;;;;5048966;28;20799;-61
2022/12/12 06:14:00;;;;;;;68.53;21.40;;;-0.40;99.90;;;;;;5063460;28;20053;-61
2022/12/12 06:16:28;;;;;;;64.35;19.55;;;-0.40;99.90;;;;;;5051736;28;20045;-61
2022/12/12 06:18:55;;;;;;;70.35;22.45;;;-0.60;99.90;;;;;;5057362;28;20071;-59
2022/12/12 06:21:23;;;;;;;70.18;20.90;;;-0.40;99.90;;;;;;5047127;28;20056;-59
2022/12/12 06:23:51;;;;;;;71.78;21.05;;;-1.10;99.90;;;;;;5060305;28;20052;-62
2022/12/12 06:26:20;;;;;;;64.78;19.55;;;-0.40;99.90;;;;;;5061995;28;20036;-59
2022/12/12 06:28:48;;;;;;;58.20;18.43;;;-0.30;99.90;;;;;;5061917;28;20055;-60
2022/12/12 06:31:16;;;;;;;73.93;20.20;;;-0.30;99.90;;;;;;5045875;28;20320;-60
2022/12/12 06:33:44;;;;;;;64.22;22.15;;;-0.40;99.90;;;;;;5051340;28;20060;-60
2022/12/12 06:36:23;;;;;;;68.20;20.67;;;-0.40;99.90;;;;;;5057173;28;20040;-60
2022/12/12 06:38:52;;;;;;;62.20;20.33;;;-0.30;99.90;;;;;;5050430;28;20408;-61
2022/12/12 06:41:20;;;;;;;65.57;20.63;;;-0.30;99.90;;;;;;5046634;28;20053;-60
2022/12/12 06:43:48;;;;;;;65.22;22.25;;;-0.40;99.90;;;;;;5060535;28;20048;-59
2022/12/12 06:46:21;;;;;;;62.00;20.42;;;-0.30;99.90;;;;;;5049575;28;20403;-62
2022/12/12 06:48:49;;;;;;;82.07;23.17;;;-0.40;99.90;;;;;;5053133;28;20049;-60
2022/12/12 06:51:21;;;;;;;66.95;20.25;;;-0.40;99.90;;;;;;5051271;28;20048;-59
2022/12/12 06:53:54;;;;;;;73.25;22.45;;;-0.40;99.90;;;;;;5051962;28;20049;-62
2022/12/12 06:56:23;;;;;;;73.22;22.20;;;-0.40;99.90;;;;;;5049302;28;20037;-61
2022/12/12 06:58:53;;;;;;;73.95;19.95;;;-0.40;99.90;;;;;;5062741;28;20055;-60
2022/12/12 07:01:22;;;;;;;;;;;-0.40;99.90;;;;;;5045561;28;20044;-61
2022/12/12 07:03:51;;;;;;;75.07;21.38;;;0.50;99.90;;;;;;5052490;28;20300;-62
2022/12/12 07:06:22;;;;;;;72.80;19.77;;;-0.50;99.90;;;;;;5048539;28;20060;-62
2022/12/12 07:08:54;;;;;;;68.93;21.45;;;-0.50;99.90;;;;;;5055806;28;20049;-62
2022/12/12 07:11:32;;;;;;;79.03;22.70;;;-0.50;99.90;;;;;;5049746;28;20044;-59
2022/12/12 07:14:02;;;;;;;75.47;21.87;;;-0.60;99.90;;;;;;5053198;28;20052;-62
2022/12/12 07:16:30;;;;;;;67.68;22.63;;;-0.60;99.90;;;;;;5063569;28;20231;-59
2022/12/12 07:18:58;;;;;;;81.82;23.70;;;-0.60;99.90;;;;;;5066648;28;20040;-62
2022/12/12 07:21:25;;;;;;;79.10;22.75;;;-0.60;99.90;;;;;;5066050;28;20415;-60
2022/12/12 07:23:55;;;;;;;76.53;23.48;;;-0.60;99.90;;;;;;5059991;28;20045;-62
2022/12/12 07:26:24;;;;;;;80.63;22.67;;;-0.60;99.90;;;;;;5048369;28;20428;-60
2022/12/12 07:28:52;;;;;;;75.53;21.17;;;-0.60;99.90;;;;;;5057999;28;20048;-61
2022/12/12 07:31:25;;;;;;;70.80;22.70;;;-0.50;99.90;;;;;;5067683;28;20399;-59
2022/12/12 07:33:53;;;;;;;76.32;20.92;;;-0.60;99.90;;;;;;5066748;28;20056;-62
2022/12/12 07:36:21;;;;;;;83.50;21.50;;;-0.60;99.90;;;;;;5054893;28;20041;-61
2022/12/12 07:38:52;;;;;;;82.13;22.55;;;-0.60;99.90;;;;;;5058742;28;20512;-59
2022/12/12 07:41:20;;;;;;;72.55;21.75;;;-0.60;99.90;;;;;;5051909;28;20053;-61
2022/12/12 07:43:49;;;;;;;68.35;19.38;;;-0.60;99.90;;;;;;5056836;28;20048;-62
2022/12/12 07:46:24;;;;;;;86.25;22.75;;;-0.60;99.90;;;;;;5055963;28;20047;-60
2022/12/12 07:48:53;;;;;;;84.50;20.85;;;-0.60;99.90;;;;;;5058327;28;20045;-60
2022/12/12 07:51:25;;;;;;;76.32;18.67;;;-0.60;99.90;;;;;;5055883;28;20507;-62
2022/12/12 07:53:53;;;;;;;92.40;20.27;;;-0.70;99.90;;;;;;5061930;28;20041;-60
2022/12/12 07:56:21;;;;;;;91.88;21.13;;;-0.70;99.90;;;;;;5067969;28;20053;-62
2022/12/12 07:58:52;;;;;;;89.30;19.40;;;-0.80;99.90;;;;;;5058779;28;20037;-61
2022/12/12 08:01:25;;;;;;;88.53;20.40;;;-0.80;99.90;;;;;;5044618;28;20044;-61
2022/12/12 08:03:54;;;;;;;75.82;21.65;;;-0.80;99.90;;;;;;5049873;28;20428;-61
2022/12/12 08:06:22;;;;;;;80.83;20.90;;;-0.80;99.90;;;;;;5059197;28;20045;-60
2022/12/12 08:08:56;;;;;;;85.75;22.05;;;-0.90;99.90;;;;;;5066664;28;20060;-60
2022/12/12 08:11:25;;;;;;;83.10;22.52;;;-0.90;99.90;;;;;;5063927;28;20056;-60
2022/12/12 08:13:53;;;;;;;81.53;20.02;;;-0.90;99.90;;;;;;5060093;28;20058;-61
2022/12/12 08:16:27;;;;;;;91.72;20.98;;;-0.90;99.90;;;;;;5065121;28;20040;-59
2022/12/12 08:18:56;;;;;;;80.43;21.02;;;-0.90;99.90;;;;;;5058274;28;20045;-61
2022/12/12 08:21:27;;;;;;;93.50;20.67;;;-0.90;99.90;;;;;;5052047;28;20514;-60
2022/12/12 08:24:00;;;;;;;74.95;18.88;;;-0.90;99.90;;;;;;5061178;28;20424;-59
2022/12/12 08:26:32;;;;;;;80.53;19.00;;;-0.90;99.90;;;;;;5051150;28;20044;-59
2022/12/12 08:29:00;;;;;;;76.18;18.45;;;-1.00;99.90;;;;;;5063611;28;20057;-60
2022/12/12 08:31:28;;;;;;;85.38;19.20;;;-0.90;99.90;;;;;;5044961;28;20040;-60
2022/12/12 08:33:58;;;;;;;73.13;19.27;;;-1.00;99.90;;;;;;5055680;28;20051;-59
2022/12/12 08:36:30;;;;;;;;;;;-1.00;99.90;;;;;;5053756;28;20048;-59
2022/12/12 08:39:02;;;;;;;73.00;17.60;;;-1.00;99.90;;;;;;5067215;28;19920;-60
2022/12/12 08:41:30;;;;;;;69.20;17.80;;;-1.00;99.90;;;;;;5061950;28;20506;-59
2022/12/12 08:44:00;;;;;;;71.18;18.00;;;-1.00;99.90;;;;;;5063325;28;20045;-59
2022/12/12 08:46:31;;;;;;;95.35;18.00;;;-1.00;99.90;;;;;;5066686;28;20427;-59
2022/12/12 08:49:02;;;;;;;93.13;18.73;;;-1.00;99.90;;;;;;5067300;28;20045;-61
2022/12/12 08:51:30;;;;;;;117.28;19.23;;;-1.00;99.90;;;;;;5050393;28;20528;-59
2022/12/12 08:53:58;;;;;;;92.40;17.30;;;-1.00;99.90;;;;;;5070375;28;20037;-59
2022/12/12 08:56:26;;;;;;;87.53;17.17;;;-1.00;99.90;;;;;;5071078;28;20053;-61
2022/12/12 08:58:58;;;;;;;114.25;18.85;;;-1.00;99.90;;;;;;5070299;28;20047;-61
2022/12/12 09:01:27;;;;;;;87.78;18.65;;;-1.00;99.90;;;;;;5070956;28;20048;-60
2022/12/12 09:03:56;;;;;;;89.47;20.48;;;-1.00;99.90;;;;;;5057405;28;20389;-61
2022/12/12 09:06:25;;;;;;;105.13;21.75;;;-0.90;99.90;;;;;;5057894;28;20040;-60
2022/12/12 09:08:54;;;;;;;89.47;19.30;;;-0.90;99.90;;;;;;5065222;28;20045;-61
2022/12/12 09:11:23;;;;;;;121.90;20.40;;;-0.90;99.90;;;;;;5070626;28;20049;-59
2022/12/12 09:13:51;;;;;;;100.80;20.48;;;-0.90;99.90;;;;;;5070385;28;20044;-60
2022/12/12 09:16:20;;;;;;;83.60;20.80;;;-0.90;99.90;;;;;;5060859;28;20040;-60
2022/12/12 09:18:48;;;;;;;108.00;21.30;;;-0.90;99.90;;;;;;5061622;28;20048;-60
2022/12/12 09:21:17;;;;;;;116.53;19.65;;;-0.90;99.90;;;;;;5064670;28;20511;-60
2022/12/12 09:23:47;;;;;;;94.90;21.27;;;-0.90;99.90;;;;;;5065355;28;20055;-60
2022/12/12 09:26:16;;;;;;;111.93;23.38;;;-0.90;99.90;;;;;;5069005;28;20045;-61
2022/12/12 09:28:44;;;;;;;;;;;-0.90;99.90;;;;;;5066921;28;20591;-61
2022/12/12 09:31:12;;;;;;;182.32;23.40;;;-0.90;99.90;;;;;;5049150;28;19927;-61
2022/12/12 09:33:41;;;;;;;93.82;21.50;;;-0.90;99.90;;;;;;5074311;28;20055;-60
2022/12/12 09:36:13;;;;;;;100.80;21.10;;;-0.90;99.90;;;;;;5066114;28;20048;-59
2022/12/12 09:38:41;;;;;;;97.72;22.25;;;-0.80;99.90;;;;;;5062721;28;20052;-61
2022/12/12 09:41:09;;;;;;;93.28;22.25;;;-0.90;99.90;;;;;;5065516;28;20056;-59
2022/12/12 09:43:52;;;;;;;104.65;20.83;;;-0.90;99.90;;;;;;5063246;28;20396;-59
2022/12/12 09:46:42;;;;;;;113.80;24.48;;;-0.90;99.90;;;;;;5053694;28;20056;-60
2022/12/12 09:49:13;;;;;;;108.78;23.23;;;-0.90;99.90;;;;;;5059147;28;20081;-60
2022/12/12 09:51:46;;;;;;;83.47;21.25;;;-0.90;99.90;;;;;;5062952;28;20397;-59
2022/12/12 09:54:20;;;;;;;86.00;21.17;;;-0.80;99.90;;;;;;5068712;28;20049;-60
2022/12/12 09:56:57;;;;;;;97.30;21.67;;;-0.80;99.90;;;;;;5069737;28;20420;-59
2022/12/12 09:59:50;;;;;;;83.38;21.17;;;-0.90;99.90;;;;;;5061148;28;20048;-61
2022/12/12 10:02:50;;;;;;;83.35;20.90;;;-0.90;99.90;;;;;;5052325;28;20059;-63
2022/12/12 10:05:25;;;;;;;80.07;19.13;;;-0.90;99.90;;;;;;5054165;28;20503;-60
2022/12/12 10:08:12;;;;;;;88.38;23.38;;;-0.90;99.90;;;;;;5064651;28;20495;-61
2022/12/12 10:10:47;;;;;;;77.38;20.63;;;-0.80;99.90;;;;;;5068065;28;20406;-60
2022/12/12 10:13:19;;;;;;;72.70;18.55;;;-0.80;99.90;;;;;;5068843;28;20040;-60
2022/12/12 10:16:13;;;;;;;81.20;21.33;;;-0.80;99.90;;;;;;5069235;28;20041;-59
2022/12/12 10:18:47;;;;;;;69.40;19.63;;;-0.70;99.90;;;;;;5069159;28;20041;-62
2022/12/12 10:21:21;;;;;;;75.68;20.00;;;-0.60;99.90;;;;;;5068620;28;20052;-60
2022/12/12 10:23:55;;;;;;;76.45;20.20;;;-0.70;99.90;;;;;;5064178;28;20477;-59
2022/12/12 10:26:26;;;;;;;65.13;19.83;;;-0.60;99.90;;;;;;5054688;28;20037;-61
2022/12/12 10:29:11;;;;;;;63.40;19.73;;;-0.60;99.90;;;;;;5062416;28;20531;-60
2022/12/12 10:31:51;;;;;;;67.20;19.63;;;-0.50;99.90;;;;;;5068128;28;20044;-61
2022/12/12 10:34:42;;;;;;;67.40;17.98;;;-0.50;99.90;;;;;;5063884;28;20049;-60
2022/12/12 10:37:19;;;;;;;64.70;20.40;;;-0.40;99.90;;;;;;5050999;28;20534;-60
2022/12/12 10:39:57;;;;;;;67.93;22.02;;;-0.40;99.90;;;;;;5068630;28;20044;-61
2022/12/12 10:42:37;;;;;;;71.63;20.38;;;-0.40;99.90;;;;;;5062090;28;20048;-61
2022/12/12 10:45:16;;;;;;;75.30;20.85;;;-0.30;99.90;;;;;;5068721;28;20051;-60
2022/12/12 10:47:45;;;;;;;82.32;22.60;;;-0.30;99.90;;;;;;5068735;28;20041;-62
2022/12/12 10:50:21;;;;;;;68.72;19.75;;;-0.30;99.90;;;;;;5068344;28;20082;-60
2022/12/12 10:52:49;;;;;;;75.20;21.95;;;-0.30;99.90;;;;;;5063673;28;20052;-60
2022/12/12 10:55:40;;;;;;;69.03;20.85;;;-0.20;99.90;;;;;;5056240;28;20049;-60
2022/12/12 10:58:08;;;;;;;73.28;20.35;;;-0.20;99.90;;;;;;5057287;28;20099;-60
2022/12/12 11:00:41;;;;;;;70.60;21.58;;;-0.10;99.90;;;;;;5068239;28;20044;-60
2022/12/12 11:03:18;;;;;;;64.85;19.92;;;-0.10;99.90;;;;;;5068098;28;20041;-59
2022/12/12 11:05:47;;;;;;;60.00;20.08;;;-0.10;99.90;;;;;;5067204;28;20049;-60
2022/12/12 11:08:24;;;;;;;58.92;18.85;;;-0.10;99.90;;;;;;5057741;28;20037;-59
2022/12/12 11:11:08;;;;;;;67.85;20.30;;;0.00;99.90;;;;;;5047946;28;20056;-60
2022/12/12 11:14:03;;;;;;;59.80;19.45;;;0.00;99.90;;;;;;5061232;28;20059;-60
2022/12/12 11:16:43;;;;;;;50.17;18.42;;;0.10;99.90;;;;;;5068235;28;20044;-59
2022/12/12 11:19:16;;;;;;;56.72;17.65;;;0.10;99.90;;;;;;5066441;28;20040;-59
2022/12/12 11:21:45;;;;;;;58.33;18.13;;;0.10;99.90;;;;;;5055801;28;20045;-59
2022/12/12 11:24:28;;;;;;;51.83;18.48;;;0.10;99.90;;;;;;5063184;28;20045;-60
2022/12/12 11:27:05;;;;;;;55.20;19.58;;;0.10;99.90;;;;;;5064709;28;20036;-59
2022/12/12 11:29:33;;;;;;;58.47;19.27;;;0.20;99.90;;;;;;5065931;28;20052;-60
2022/12/12 11:32:02;;;;;;;51.83;17.73;;;0.20;99.90;;;;;;5068110;28;20059;-61
2022/12/12 11:34:34;;;;;;;48.90;19.03;;;0.10;99.90;;;;;;5066862;28;20060;-59
2022/12/12 11:37:02;;;;;;;57.28;19.05;;;0.10;99.90;;;;;;5064651;28;20368;-59
2022/12/12 11:39:41;;;;;;;55.60;16.80;;;0.10;99.90;;;;;;5066586;28;20044;-59
2022/12/12 11:42:14;;;;;;;53.83;17.45;;;0.10;99.90;;;;;;5068062;28;20352;-61
2022/12/12 11:44:44;;;;;;;46.70;15.40;;;0.20;99.90;;;;;;5067615;28;20119;-59
2022/12/12 11:47:23;;;;;;;47.70;16.67;;;0.20;99.90;;;;;;5062461;28;20040;-59
2022/12/12 11:49:55;;;;;;;48.60;17.20;;;0.20;99.90;;;;;;5067934;28;20051;-60
2022/12/12 11:52:29;;;;;;;61.10;19.48;;;0.20;99.90;;;;;;5066826;28;20048;-59
2022/12/12 11:54:58;;;;;;;49.22;17.77;;;0.20;99.90;;;;;;5066817;28;20384;-62
2022/12/12 11:57:54;;;;;;;53.65;17.88;;;0.30;99.90;;;;;;5064733;28;20048;-60
2022/12/12 12:00:44;;;;;;;56.22;17.52;;;0.30;99.90;;;;;;5059125;28;20044;-59
2022/12/12 12:03:49;;;;;;;42.30;14.63;;;0.30;99.90;;;;;;5056133;28;20053;-60
2022/12/12 12:06:31;;;;;;;48.42;15.05;;;0.30;99.90;;;;;;5067600;28;20059;-59
2022/12/12 12:09:05;;;;;;;42.60;17.38;;;;;;;;;;5066156;28;20048;-60
2022/12/12 12:11:44;;;;;;;46.45;14.80;;;0.40;99.90;;;;;;5058744;28;20423;-60
2022/12/12 12:14:33;;;;;;;;;;;0.40;99.90;;;;;;5065517;28;20452;-60
2022/12/12 12:17:08;;;;;;;44.90;16.08;;;0.50;99.90;;;;;;5067826;28;19927;-60
2022/12/12 12:19:49;;;;;;;50.75;16.50;;;0.50;99.90;;;;;;5067344;28;20267;-59
2022/12/12 12:22:28;;;;;;;51.25;17.88;;;0.50;99.90;;;;;;5061723;28;20400;-60
2022/12/12 12:24:59;;;;;;;49.08;16.15;;;0.60;99.90;;;;;;5056450;28;20477;-61
2022/12/12 12:27:45;;;;;;;52.28;17.27;;;0.60;99.90;;;;;;5054492;28;20523;-60
2022/12/12 12:30:22;;;;;;;49.58;17.20;;;0.70;99.90;;;;;;5070930;28;20319;-61
2022/12/12 12:33:07;;;;;;;47.30;17.70;;;0.70;99.90;;;;;;5061972;28;20045;-60
2022/12/12 12:35:55;;;;;;;48.78;17.30;;;0.80;99.90;;;;;;5071056;28;20062;-62
2022/12/12 12:38:35;;;;;;;51.42;16.80;;;0.80;99.90;;;;;;5070362;28;20048;-62
2022/12/12 12:41:21;;;;;;;57.58;17.42;;;0.80;99.90;;;;;;5071157;28;20047;-60
2022/12/12 12:43:57;;;;;;;48.33;16.58;;;0.80;99.90;;;;;;5066185;28;20049;-61
2022/12/12 12:46:34;;;;;;;52.60;18.17;;;0.70;99.90;;;;;;5070240;28;20045;-60
2022/12/12 12:49:13;;;;;;;50.72;18.55;;;0.70;99.90;;;;;;5071036;28;20503;-58
2022/12/12 12:51:54;;;;;;;59.05;19.58;;;0.70;99.90;;;;;;5069872;28;20045;-60
2022/12/12 12:54:41;;;;;;;53.80;18.25;;;0.70;99.90;;;;;;5065214;28;20052;-61
2022/12/12 12:57:33;;;;;;;54.40;18.70;;;0.70;99.90;;;;;;5050874;28;20047;-60
2022/12/12 13:00:14;;;;;;;58.72;20.20;;;0.70;99.90;;;;;;5049573;28;20052;-60
2022/12/12 13:02:54;;;;;;;51.17;18.17;;;0.70;99.90;;;;;;5055826;28;20047;-59
2022/12/12 13:05:31;;;;;;;48.00;16.75;;;0.70;99.90;;;;;;5064210;28;20496;-60
2022/12/12 13:07:59;;;;;;;46.00;18.38;;;0.70;99.90;;;;;;5057918;28;20045;-60
2022/12/12 13:10:28;;;;;;;59.25;19.10;;;0.70;99.90;;;;;;5050503;28;20055;-60
2022/12/12 13:13:21;;;;;;;51.42;16.70;;;0.70;99.90;;;;;;5057346;28;20488;-60
2022/12/12 13:16:04;;;;;;;39.92;15.57;;;0.70;99.90;;;;;;5070589;28;20040;-61